Anadarko, OK

10:07 AM CDT on October 23, 2014 (GMT -0500)
Peck's country | Change Station
CLOSE
Current Station
Personal Weather Station
Location: Anadarko, OK
Elevation: 1255 ft
Nearby Weather Stations

Elev 1255 ft 35.10 °N, 98.32 °W | Updated 7 minutes ago

Partly Cloudy
Partly Cloudy
64.0 °F
Feels Like 64.0 °F
N
6.0
Wind Variable Wind from South
Gusts 14.0 mph

Today
High -- | Low -- °F
--% Chance of Precip.
Yesterday
High -- | Low -- °F
Precip. -- in
7:45 AM 6:48 PM
Waning Crescent, 0% visible
Pressure 30.12 in
Visibility 10.0 miles
Clouds Mostly Cloudy 7500 ft
Dew Point 59 °F
Humidity 84%
Rainfall 0.00 in
Snow Depth Not available.
UV 1 out of 12
Pollen 5.10 out of 12
Air Quality Not available.
Flu Activity No Activity
METAR KFSI 231458Z AUTO 19009KT 10SM BKN075 19/15 A3013 RMK AO2 SLP199 T01890148 52013

More Conditions Fewer Conditions

Pressure 30.12 in
Visibility 10.0 miles
Clouds Mostly Cloudy 7500 ft
Dew Point 59 °F
Humidity 84%
Rainfall 0.00 in
Snow Depth Not available.
UV 1 out of 12
Pollen 5.10 out of 12
Air Quality Not available.
Flu Activity No Activity
METAR KFSI 231458Z AUTO 19009KT 10SM BKN075 19/15 A3013 RMK AO2 SLP199 T01890148 52013

More Conditions Fewer Conditions

10-Day Weather Forecast

Almanac

Astronomy

Oct. 23, 2014 Rise Set
Actual Time 7:45 AM CDT 6:48 PM CDT
Civil Twilight 7:20 AM CDT 7:13 PM CDT
Nautical Twilight 6:50 AM CDT 7:43 PM CDT
Astronomical Twilight 6:21 AM CDT 8:12 PM CDT
Moon 7:27 AM CDT 6:50 PM CDT
Length of Visible Light 11h 53m
Length of Day
11h 02m
Tomorrow will be 2m 2s shorter.
Waning Crescent, 0% of the Moon is Illuminated
Today
Waning Crescent
Oct 23
New
Oct 30
First Quarter
Nov 6
Full
Nov 14
Last Quarter

Today's Extremes

State Highs State Lows

Community

WunderPhotos

Upload Photos

1,764,277 photos uploaded!

Nearby

Snow Depth

Station Depth Elevation
No new snow has been reported.

Earthquake Activity

City Distance Mag. Time & Date
Medford, Oklahoma 112 miles 3.0 2:06 AM CDT
2014-10-23
Pawnee, Oklahoma 114 miles 2.7 1:06 AM CDT
2014-10-23
Luther, Oklahoma 69 miles 2.5 10:36 PM CDT
2014-10-22
Crescent, Oklahoma 80 miles 2.7 9:58 PM CDT
2014-10-22
Minimum magnitude displayed is 2.5.

Coastal Water Temperatures

Place Temperature
No Stations Reporting

Nearby Weather Stations